Brownlee, Nebraska
Current Conditions -  °F | °C
As of 2:55 PM on Thursday 18 Dec 2014 (Local Time) from KTIF Reporting Station
Scattered Clouds Scattered Clouds  
Wind Chill: 25°   Ceiling: Unl
Heat Index: 31°   Visibility: 10mi
Dew Point: 26°   Wind: 6mph
Humidity: 82%   Direction: 240°WSW
Pressure: 30.04"   Gusts: NA
Location:  41.9263°N, 100.558°W
Report Text: KTIF 182055Z AUTO 24005KT 10SM SCT008 M01/M03 A3004 RMK AO2 T10061033
Loading
Personal Weather Stations






























Interactive Weather Map New forecast layout! Learn more

10-Day Weather Forecast

Advertisements
Track Severe Weather on mobile